createdAt,value
2023-05-05T00:01:49.734Z,95.09
2023-05-05T00:04:16.126Z,95.13
2023-05-05T00:06:42.734Z,95.09
2023-05-05T00:09:09.495Z,95.17
2023-05-05T00:11:35.945Z,95.25
2023-05-05T00:14:02.441Z,95.64
2023-05-05T00:16:28.919Z,95.99
2023-05-05T00:18:55.367Z,96.41
2023-05-05T00:21:21.889Z,96.67
2023-05-05T00:23:48.276Z,96.43
2023-05-05T00:26:14.814Z,96.70
2023-05-05T00:28:41.309Z,96.96
2023-05-05T00:31:09.538Z,97.00
2023-05-05T00:33:34.337Z,97.00
2023-05-05T00:36:00.858Z,97.04
2023-05-05T00:38:27.319Z,97.00
2023-05-05T00:40:53.844Z,96.72
2023-05-05T00:43:20.346Z,97.06
2023-05-05T00:45:46.883Z,96.96
2023-05-05T00:48:13.394Z,97.03
2023-05-05T00:50:39.804Z,97.77
2023-05-05T00:53:06.339Z,98.57
2023-05-05T00:55:32.895Z,99.19
2023-05-05T00:57:59.421Z,99.71
2023-05-05T01:00:26.040Z,100.00
2023-05-05T01:02:52.819Z,100.00
2023-05-05T01:05:18.926Z,100.00
2023-05-05T01:07:45.378Z,100.00
2023-05-05T01:10:19.898Z,100.00
2023-05-05T01:12:40.617Z,100.00
2023-05-05T01:15:04.924Z,100.00
2023-05-05T01:17:31.345Z,100.00
2023-05-05T01:19:57.860Z,100.00
2023-05-05T01:22:24.264Z,100.00
2023-05-05T01:24:50.717Z,100.00
2023-05-05T01:27:17.119Z,100.00
2023-05-05T01:29:43.572Z,100.00
2023-05-05T01:32:10.063Z,100.00
2023-05-05T01:34:36.489Z,100.00
2023-05-05T01:37:03.013Z,100.00
2023-05-05T01:39:29.385Z,100.00
2023-05-05T01:41:55.893Z,100.00
2023-05-05T01:44:22.412Z,100.00
2023-05-05T01:46:48.919Z,100.00
2023-05-05T01:49:15.298Z,100.00
2023-05-05T01:51:41.688Z,100.00
2023-05-05T01:54:08.217Z,100.00
2023-05-05T01:56:35.171Z,100.00
2023-05-05T01:59:01.608Z,100.00
2023-05-05T02:01:27.999Z,100.00
2023-05-05T02:03:54.402Z,100.00
2023-05-05T02:06:20.920Z,100.00
2023-05-05T02:08:47.301Z,100.00
2023-05-05T02:11:13.780Z,100.00
2023-05-05T02:13:40.274Z,100.00
2023-05-05T02:16:06.705Z,100.00
2023-05-05T02:18:33.117Z,99.81
2023-05-05T02:20:59.584Z,99.58
2023-05-05T02:23:26.012Z,99.20
2023-05-05T02:25:52.493Z,98.83
2023-05-05T02:28:19.023Z,98.70
2023-05-05T02:30:45.618Z,98.37
2023-05-05T02:33:12.092Z,98.20
2023-05-05T02:35:40.144Z,98.25
2023-05-05T02:38:05.070Z,97.94
2023-05-05T02:40:31.694Z,97.68
2023-05-05T02:42:58.018Z,97.22
2023-05-05T02:45:24.504Z,97.00
2023-05-05T02:47:51.071Z,97.36
2023-05-05T02:50:17.490Z,97.05
2023-05-05T02:52:44.017Z,97.04
2023-05-05T02:55:10.617Z,96.68
2023-05-05T02:57:37.208Z,96.55
2023-05-05T03:00:03.561Z,96.42
2023-05-05T03:02:30.142Z,96.18
2023-05-05T03:04:56.708Z,95.95
2023-05-05T03:07:23.183Z,95.61
2023-05-05T03:09:49.672Z,95.66
2023-05-05T03:12:16.194Z,95.57
2023-05-05T03:14:42.714Z,95.67
2023-05-05T03:17:09.168Z,95.55
2023-05-05T03:19:35.656Z,95.36
2023-05-05T03:22:02.122Z,94.93
2023-05-05T03:24:28.586Z,94.72
2023-05-05T03:26:54.985Z,94.65
2023-05-05T03:29:21.402Z,94.43
2023-05-05T03:31:48.173Z,94.01
2023-05-05T03:34:14.548Z,93.75
2023-05-05T03:36:41.128Z,93.61
2023-05-05T03:39:07.601Z,93.46
2023-05-05T03:41:33.976Z,93.25
2023-05-05T03:44:00.480Z,93.07
2023-05-05T03:46:26.875Z,92.96
2023-05-05T03:48:53.314Z,92.86
2023-05-05T03:51:19.750Z,92.98
2023-05-05T03:53:46.238Z,93.18
2023-05-05T03:56:12.624Z,93.41
2023-05-05T03:58:39.025Z,93.62
2023-05-05T04:01:05.482Z,93.91
2023-05-05T04:03:31.961Z,94.12
2023-05-05T04:05:58.299Z,94.08
2023-05-05T04:08:24.836Z,94.45
2023-05-05T04:10:51.251Z,94.54
2023-05-05T04:13:17.821Z,94.46
2023-05-05T04:15:44.334Z,94.69
2023-05-05T04:18:10.746Z,94.67
2023-05-05T04:20:37.218Z,94.69
2023-05-05T04:23:03.752Z,94.81
2023-05-05T04:25:30.305Z,94.57
2023-05-05T04:27:56.789Z,94.35
2023-05-05T04:30:23.224Z,94.19
2023-05-05T04:32:49.750Z,94.02
2023-05-05T04:35:16.145Z,94.19
2023-05-05T04:37:42.610Z,94.00
2023-05-05T04:40:09.232Z,93.77
2023-05-05T04:42:35.418Z,93.19
2023-05-05T04:45:02.036Z,92.29
2023-05-05T04:47:28.428Z,92.11
2023-05-05T04:49:54.990Z,91.90
2023-05-05T04:52:21.399Z,91.56
2023-05-05T04:54:47.843Z,91.43
2023-05-05T04:57:14.342Z,90.80
2023-05-05T04:59:40.673Z,90.56
2023-05-05T05:02:07.251Z,90.30
2023-05-05T05:04:33.651Z,89.54
2023-05-05T05:07:00.036Z,88.81
2023-05-05T05:09:26.493Z,88.21
2023-05-05T05:11:52.919Z,88.59
2023-05-05T05:14:19.381Z,88.60
2023-05-05T05:16:45.923Z,87.84
2023-05-05T05:19:13.448Z,87.70
2023-05-05T05:21:39.858Z,87.60
2023-05-05T05:24:06.349Z,87.33
2023-05-05T05:26:32.780Z,87.13
2023-05-05T05:28:59.327Z,86.45
2023-05-05T05:31:25.740Z,86.71
2023-05-05T05:33:52.107Z,86.36
2023-05-05T05:36:18.547Z,86.09
2023-05-05T05:38:45.184Z,85.40
2023-05-05T05:41:11.628Z,85.00
2023-05-05T05:43:38.406Z,83.85
2023-05-05T05:46:07.514Z,82.80
2023-05-05T05:48:31.267Z,81.66
2023-05-05T05:50:57.755Z,80.16
2023-05-05T05:53:24.228Z,79.21
2023-05-05T05:55:50.625Z,77.03
2023-05-05T05:58:17.110Z,77.04
2023-05-05T06:00:43.616Z,78.03
2023-05-05T06:03:10.301Z,78.49
2023-05-05T06:05:36.536Z,78.73
2023-05-05T06:08:03.102Z,77.94
2023-05-05T06:10:29.928Z,78.35
2023-05-05T06:12:55.957Z,78.03
2023-05-05T06:15:22.286Z,77.76
2023-05-05T06:17:48.773Z,78.36
2023-05-05T06:20:15.289Z,77.89
2023-05-05T06:22:41.699Z,77.84
2023-05-05T06:25:08.171Z,77.62
2023-05-05T06:27:34.526Z,77.77
2023-05-05T06:30:00.916Z,77.55
2023-05-05T06:32:27.413Z,78.28
2023-05-05T06:34:53.837Z,78.33
2023-05-05T06:37:20.218Z,78.12
2023-05-05T06:39:46.703Z,78.04
2023-05-05T06:42:13.097Z,76.82
2023-05-05T06:44:39.585Z,76.45
2023-05-05T06:47:06.066Z,76.29
2023-05-05T06:49:32.478Z,75.50
2023-05-05T06:51:58.873Z,74.92
2023-05-05T06:54:25.272Z,74.02
2023-05-05T06:56:51.702Z,73.12
2023-05-05T06:59:18.097Z,73.69
2023-05-05T07:01:44.598Z,73.61
2023-05-05T07:04:11.159Z,72.99
2023-05-05T07:06:37.428Z,70.92
2023-05-05T07:09:03.859Z,71.15
2023-05-05T07:11:30.665Z,71.08
2023-05-05T07:13:57.124Z,70.14
2023-05-05T07:16:23.792Z,70.78
2023-05-05T07:18:50.162Z,70.60
2023-05-05T07:21:16.756Z,70.18
2023-05-05T07:23:43.154Z,69.57
2023-05-05T07:26:09.535Z,69.42
2023-05-05T07:28:35.993Z,68.96
2023-05-05T07:31:02.416Z,67.12
2023-05-05T07:33:28.806Z,64.68
2023-05-05T07:35:55.241Z,62.05
2023-05-05T07:38:21.685Z,60.49
2023-05-05T07:40:48.066Z,58.47
2023-05-05T07:43:14.472Z,55.91
2023-05-05T07:45:40.884Z,54.23
2023-05-05T07:48:07.368Z,53.50
2023-05-05T07:50:33.747Z,50.89
2023-05-05T07:53:10.800Z,49.96
2023-05-05T07:55:26.630Z,48.64
2023-05-05T07:57:53.036Z,48.44
2023-05-05T08:00:19.679Z,46.71
2023-05-05T08:02:46.028Z,47.67
2023-05-05T08:05:12.444Z,48.17
2023-05-05T08:07:39.435Z,48.84
2023-05-05T08:10:05.792Z,47.95
2023-05-05T08:12:32.244Z,48.17
2023-05-05T08:14:58.833Z,46.58
2023-05-05T08:17:25.241Z,48.09
2023-05-05T08:19:51.660Z,45.29
2023-05-05T08:22:18.073Z,46.85
2023-05-05T08:24:44.469Z,45.28
2023-05-05T08:27:10.852Z,43.96
2023-05-05T08:29:37.287Z,44.48
2023-05-05T08:32:03.728Z,44.55
2023-05-05T08:34:30.149Z,45.74
2023-05-05T08:36:59.145Z,43.24
2023-05-05T08:39:25.530Z,48.31
2023-05-05T08:41:52.126Z,47.48
2023-05-05T08:44:18.545Z,47.08
2023-05-05T08:46:44.998Z,44.80
2023-05-05T08:49:11.500Z,44.45
2023-05-05T08:51:37.932Z,43.29
2023-05-05T08:54:04.282Z,44.86
2023-05-05T08:56:30.684Z,49.54
2023-05-05T08:58:57.148Z,51.86
2023-05-05T09:01:23.589Z,52.92
2023-05-05T09:03:49.949Z,53.94
2023-05-05T09:06:16.351Z,52.61
2023-05-05T09:08:42.793Z,52.12
2023-05-05T09:11:09.273Z,53.08
2023-05-05T09:13:35.620Z,54.18
2023-05-05T09:16:02.038Z,52.15
2023-05-05T09:18:28.408Z,52.51
2023-05-05T09:20:55.143Z,51.58
2023-05-05T09:23:21.300Z,46.82
2023-05-05T09:25:47.904Z,46.00
2023-05-05T09:28:14.310Z,46.12
2023-05-05T09:30:40.893Z,46.27
2023-05-05T09:33:07.284Z,46.16
2023-05-05T09:35:33.627Z,45.15
2023-05-05T09:38:00.056Z,44.33
2023-05-05T09:40:26.459Z,44.66
2023-05-05T09:42:52.830Z,48.72
2023-05-05T09:45:19.289Z,48.83
2023-05-05T09:47:45.707Z,49.07
2023-05-05T09:50:12.061Z,50.37
2023-05-05T09:52:38.430Z,51.34
2023-05-05T09:55:04.885Z,51.15
2023-05-05T09:57:31.257Z,50.01
2023-05-05T09:59:57.699Z,50.06
2023-05-05T10:02:24.256Z,49.14
2023-05-05T10:04:50.793Z,49.26
2023-05-05T10:07:17.008Z,51.25
2023-05-05T10:09:43.478Z,51.07
2023-05-05T10:12:09.885Z,50.40
2023-05-05T10:14:36.278Z,52.31
2023-05-05T10:17:02.724Z,52.00
2023-05-05T10:19:29.133Z,51.16
2023-05-05T10:21:55.499Z,51.54
2023-05-05T10:24:21.957Z,50.85
2023-05-05T10:26:48.321Z,51.89
2023-05-05T10:29:14.701Z,52.21
2023-05-05T10:31:41.171Z,53.46
2023-05-05T10:34:07.819Z,53.19
2023-05-05T10:36:34.093Z,51.29
2023-05-05T10:39:00.603Z,50.17
2023-05-05T10:41:26.919Z,50.51
2023-05-05T10:43:53.351Z,50.14
2023-05-05T10:46:19.818Z,51.18
2023-05-05T10:48:46.179Z,51.54
2023-05-05T10:51:13.190Z,51.18
2023-05-05T10:53:38.934Z,50.09
2023-05-05T10:56:05.347Z,50.04
2023-05-05T10:58:31.756Z,50.28
2023-05-05T11:00:58.144Z,51.68
2023-05-05T11:03:24.616Z,51.82
2023-05-05T11:05:51.149Z,52.95
2023-05-05T11:08:17.801Z,52.22
2023-05-05T11:10:44.252Z,51.06
2023-05-05T11:13:10.679Z,50.06
2023-05-05T11:15:37.057Z,49.08
2023-05-05T11:18:06.685Z,49.06
2023-05-05T11:20:29.915Z,49.04
2023-05-05T11:22:56.333Z,46.42
2023-05-05T11:25:22.720Z,45.12
2023-05-05T11:27:49.094Z,47.10
2023-05-05T11:30:15.529Z,49.30
2023-05-05T11:32:41.932Z,50.32
2023-05-05T11:35:08.328Z,47.32
2023-05-05T11:37:34.680Z,47.24
2023-05-05T11:40:01.080Z,48.42
2023-05-05T11:42:27.488Z,47.13
2023-05-05T11:44:53.896Z,45.50
2023-05-05T11:47:20.304Z,45.05
2023-05-05T11:49:46.728Z,45.09
2023-05-05T11:52:13.144Z,47.49
2023-05-05T11:54:39.613Z,48.44
2023-05-05T11:57:06.210Z,48.97
2023-05-05T11:59:32.660Z,48.47
2023-05-05T12:01:59.274Z,49.55
2023-05-05T12:04:25.706Z,49.75
2023-05-05T12:06:52.313Z,48.41
2023-05-05T12:09:18.662Z,47.36
2023-05-05T12:11:45.081Z,46.04
2023-05-05T12:14:11.532Z,45.48
2023-05-05T12:16:38.048Z,44.86
2023-05-05T12:19:04.455Z,45.47
2023-05-05T12:21:30.853Z,46.67
2023-05-05T12:23:57.366Z,46.45
2023-05-05T12:26:23.739Z,45.04
2023-05-05T12:28:50.141Z,44.64
2023-05-05T12:31:16.665Z,46.11
2023-05-05T12:33:43.053Z,45.83
2023-05-05T12:36:09.483Z,45.63
2023-05-05T12:38:35.864Z,45.27
2023-05-05T12:41:02.335Z,44.90
2023-05-05T12:43:28.804Z,44.89
2023-05-05T12:45:55.297Z,44.94
2023-05-05T12:48:21.644Z,45.75
2023-05-05T12:50:48.058Z,46.44
2023-05-05T12:53:14.486Z,46.76
2023-05-05T12:55:40.841Z,45.39
2023-05-05T12:58:07.313Z,45.33
2023-05-05T13:00:33.693Z,46.66
2023-05-05T13:03:00.170Z,47.86
2023-05-05T13:05:26.604Z,48.39
2023-05-05T13:07:53.091Z,49.29
2023-05-05T13:10:19.486Z,49.53
2023-05-05T13:12:45.917Z,50.43
2023-05-05T13:15:12.357Z,50.09
2023-05-05T13:17:38.987Z,50.28
2023-05-05T13:20:05.373Z,50.98
2023-05-05T13:22:31.806Z,50.35
2023-05-05T13:24:58.300Z,50.46
2023-05-05T13:27:24.693Z,50.62
2023-05-05T13:29:51.123Z,50.47
2023-05-05T13:32:17.645Z,50.41
2023-05-05T13:34:44.079Z,51.73
2023-05-05T13:37:10.519Z,51.77
2023-05-05T13:39:37.975Z,51.48
2023-05-05T13:42:04.394Z,51.21
2023-05-05T13:44:30.749Z,51.45
2023-05-05T13:46:57.232Z,51.43
2023-05-05T13:49:23.565Z,51.67
2023-05-05T13:51:50.000Z,50.70
2023-05-05T13:54:16.385Z,50.54
2023-05-05T13:56:42.811Z,50.50
2023-05-05T13:59:09.614Z,51.37
2023-05-05T14:01:36.083Z,51.97
2023-05-05T14:04:05.216Z,51.78
2023-05-05T14:06:28.954Z,52.08
2023-05-05T14:08:55.380Z,51.88
2023-05-05T14:11:21.821Z,51.81
2023-05-05T14:13:48.264Z,52.02
2023-05-05T14:16:14.862Z,52.08
2023-05-05T14:18:41.258Z,52.41
2023-05-05T14:21:07.708Z,52.14
2023-05-05T14:23:34.093Z,52.74
2023-05-05T14:26:00.462Z,53.13
2023-05-05T14:28:27.247Z,52.98
2023-05-05T14:30:53.676Z,53.80
2023-05-05T14:33:20.079Z,54.23
2023-05-05T14:35:46.516Z,53.81
2023-05-05T14:38:13.162Z,53.73
2023-05-05T14:40:39.554Z,54.10
2023-05-05T14:43:05.987Z,53.89
2023-05-05T14:45:32.382Z,54.02
2023-05-05T14:47:59.203Z,54.31
2023-05-05T14:50:25.759Z,54.68
2023-05-05T14:52:52.095Z,54.77
2023-05-05T14:55:18.508Z,54.68
2023-05-05T14:57:45.679Z,54.35
2023-05-05T15:00:11.979Z,54.10
2023-05-05T15:02:38.500Z,54.08
2023-05-05T15:05:04.862Z,54.12
2023-05-05T15:07:31.287Z,54.23
2023-05-05T15:10:00.358Z,54.62
2023-05-05T15:12:24.108Z,54.53
2023-05-05T15:14:50.558Z,54.13
2023-05-05T15:17:17.129Z,54.49
2023-05-05T15:19:43.585Z,54.65
2023-05-05T15:22:10.466Z,55.07
2023-05-05T15:24:36.845Z,54.79
2023-05-05T15:27:03.375Z,55.09
2023-05-05T15:29:29.808Z,55.12
2023-05-05T15:31:56.288Z,54.38
2023-05-05T15:34:22.669Z,54.96
2023-05-05T15:36:49.637Z,55.17
2023-05-05T15:39:16.058Z,54.92
2023-05-05T15:41:42.418Z,54.77
2023-05-05T15:44:08.808Z,53.86
2023-05-05T15:46:35.636Z,53.31
2023-05-05T15:49:02.037Z,53.60
2023-05-05T15:51:28.441Z,53.51
2023-05-05T15:53:54.848Z,53.43
2023-05-05T15:56:21.252Z,53.59
2023-05-05T15:58:47.677Z,53.43
2023-05-05T16:01:14.155Z,53.58
2023-05-05T16:03:40.683Z,53.73
2023-05-05T16:06:07.029Z,53.84
2023-05-05T16:08:33.424Z,53.91
2023-05-05T16:10:59.820Z,53.59
2023-05-05T16:13:26.389Z,53.46
2023-05-05T16:15:52.624Z,53.99
2023-05-05T16:18:19.594Z,54.00
2023-05-05T16:20:46.030Z,53.99
2023-05-05T16:23:12.400Z,54.30
2023-05-05T16:25:38.824Z,54.05
2023-05-05T16:28:05.261Z,53.78
2023-05-05T16:30:31.644Z,54.04
2023-05-05T16:32:58.275Z,53.97
2023-05-05T16:35:24.667Z,54.23
2023-05-05T16:37:51.045Z,54.58
2023-05-05T16:40:17.859Z,54.68
2023-05-05T16:42:44.707Z,55.29
2023-05-05T16:45:10.792Z,55.67
2023-05-05T16:47:37.123Z,56.15
2023-05-05T16:50:03.762Z,56.86
2023-05-05T16:52:30.241Z,56.98
2023-05-05T16:54:56.615Z,57.26
2023-05-05T16:57:23.051Z,57.84
2023-05-05T16:59:49.423Z,58.34
2023-05-05T17:02:15.785Z,58.49
2023-05-05T17:04:42.221Z,58.72
2023-05-05T17:07:08.657Z,58.91
2023-05-05T17:09:35.165Z,59.08
2023-05-05T17:12:04.099Z,59.42
2023-05-05T17:14:31.532Z,59.99
2023-05-05T17:16:58.207Z,60.48
2023-05-05T17:19:24.805Z,61.00
2023-05-05T17:21:51.275Z,61.62
2023-05-05T17:24:18.455Z,62.30
2023-05-05T17:26:45.249Z,62.80
2023-05-05T17:29:13.283Z,63.03
2023-05-05T17:31:41.067Z,63.80
2023-05-05T17:34:07.699Z,64.11
2023-05-05T17:36:36.516Z,64.60
2023-05-05T17:39:02.870Z,64.84
2023-05-05T17:41:29.298Z,65.43
2023-05-05T17:43:55.704Z,65.76
2023-05-05T17:46:22.258Z,66.16
2023-05-05T17:48:48.586Z,66.54
2023-05-05T17:51:14.949Z,67.03
2023-05-05T17:53:41.472Z,67.67
2023-05-05T17:56:09.074Z,68.05
2023-05-05T17:58:34.715Z,68.37
2023-05-05T18:01:01.177Z,68.65
2023-05-05T18:03:27.756Z,69.41
2023-05-05T18:05:54.076Z,69.86
2023-05-05T18:08:20.612Z,70.33
2023-05-05T18:10:47.049Z,70.89
2023-05-05T18:13:13.583Z,71.39
2023-05-05T18:15:39.925Z,72.16
2023-05-05T18:18:06.330Z,72.64
2023-05-05T18:20:32.744Z,73.12
2023-05-05T18:22:59.177Z,73.37
2023-05-05T18:25:25.609Z,73.86
2023-05-05T18:27:52.010Z,74.34
2023-05-05T18:30:18.582Z,74.79
2023-05-05T18:32:45.025Z,75.06
2023-05-05T18:35:11.862Z,75.40
2023-05-05T18:37:37.950Z,75.73
2023-05-05T18:40:04.430Z,75.72
2023-05-05T18:42:30.885Z,75.95
2023-05-05T18:44:57.368Z,76.21
2023-05-05T18:47:23.906Z,76.57
2023-05-05T18:49:50.284Z,76.95
2023-05-05T18:52:16.781Z,76.89
2023-05-05T18:54:43.276Z,77.14
2023-05-05T18:57:09.675Z,77.41
2023-05-05T18:59:38.670Z,77.46
2023-05-05T19:02:05.105Z,77.63
2023-05-05T19:04:32.005Z,77.59
2023-05-05T19:06:58.170Z,78.02
2023-05-05T19:09:24.794Z,78.17
2023-05-05T19:11:51.136Z,78.63
2023-05-05T19:14:17.585Z,78.82
2023-05-05T19:16:44.095Z,78.90
2023-05-05T19:19:10.498Z,79.34
2023-05-05T19:21:36.901Z,79.21
2023-05-05T19:24:03.399Z,79.17
2023-05-05T19:26:29.816Z,79.45
2023-05-05T19:28:56.353Z,79.46
2023-05-05T19:31:22.860Z,79.59
2023-05-05T19:33:49.260Z,79.84
2023-05-05T19:36:15.607Z,79.99
2023-05-05T19:38:42.175Z,80.01
2023-05-05T19:41:08.627Z,80.27
2023-05-05T19:43:35.148Z,80.59
2023-05-05T19:46:01.750Z,80.53
2023-05-05T19:48:28.617Z,81.07
2023-05-05T19:50:55.100Z,81.26
2023-05-05T19:53:21.470Z,81.25
2023-05-05T19:55:47.948Z,81.18
2023-05-05T19:58:14.366Z,81.32
2023-05-05T20:00:40.918Z,81.65
2023-05-05T20:03:07.377Z,81.85
2023-05-05T20:05:33.714Z,81.80
2023-05-05T20:08:00.200Z,82.09
2023-05-05T20:10:26.521Z,82.47
2023-05-05T20:12:52.996Z,82.64
2023-05-05T20:15:19.356Z,83.00
2023-05-05T20:17:45.849Z,83.05
2023-05-05T20:20:12.342Z,83.15
2023-05-05T20:22:40.116Z,83.22
2023-05-05T20:25:05.045Z,83.43
2023-05-05T20:27:32.502Z,83.64
2023-05-05T20:29:57.956Z,83.80
2023-05-05T20:32:24.440Z,83.90
2023-05-05T20:34:50.736Z,83.78
2023-05-05T20:37:17.221Z,84.07
2023-05-05T20:39:43.540Z,84.23
2023-05-05T20:42:09.942Z,84.14
2023-05-05T20:44:38.446Z,84.38
2023-05-05T20:47:02.862Z,84.39
2023-05-05T20:49:29.160Z,84.02
2023-05-05T20:51:55.621Z,84.14
2023-05-05T20:54:22.018Z,84.36
2023-05-05T20:56:48.502Z,84.14
2023-05-05T20:59:14.952Z,84.27
2023-05-05T21:01:41.385Z,84.31
2023-05-05T21:04:07.943Z,84.42
2023-05-05T21:06:34.361Z,84.77
2023-05-05T21:09:00.852Z,84.91
2023-05-05T21:11:27.226Z,85.35
2023-05-05T21:13:53.640Z,85.91
2023-05-05T21:16:20.462Z,85.83
2023-05-05T21:18:46.792Z,85.86
2023-05-05T21:21:13.266Z,85.96
2023-05-05T21:23:39.643Z,86.21
2023-05-05T21:26:06.460Z,86.63
2023-05-05T21:28:33.973Z,86.73
2023-05-05T21:31:20.555Z,87.06
2023-05-05T21:33:27.063Z,87.24
2023-05-05T21:35:53.454Z,87.26
2023-05-05T21:38:19.885Z,87.59
2023-05-05T21:40:46.290Z,87.62
2023-05-05T21:43:12.734Z,87.62
2023-05-05T21:45:39.206Z,87.58
2023-05-05T21:48:05.779Z,87.59
2023-05-05T21:50:32.152Z,87.67
2023-05-05T21:52:58.813Z,87.74
2023-05-05T21:55:25.302Z,87.90
2023-05-05T21:57:51.816Z,87.98
2023-05-05T22:00:18.271Z,87.84
2023-05-05T22:02:44.727Z,88.17
2023-05-05T22:05:11.061Z,88.69
2023-05-05T22:07:37.521Z,88.49
2023-05-05T22:10:04.053Z,88.62
2023-05-05T22:12:30.565Z,88.58
2023-05-05T22:14:56.979Z,88.75
2023-05-05T22:17:23.555Z,88.41
2023-05-05T22:19:50.043Z,89.12
2023-05-05T22:22:16.670Z,89.57
2023-05-05T22:24:43.218Z,89.17
2023-05-05T22:27:09.660Z,89.33
2023-05-05T22:29:36.090Z,89.72
2023-05-05T22:32:02.606Z,90.14
2023-05-05T22:34:29.038Z,90.33
2023-05-05T22:36:55.496Z,90.40
2023-05-05T22:39:21.837Z,90.72
2023-05-05T22:41:48.328Z,90.45
2023-05-05T22:44:14.870Z,90.60
2023-05-05T22:46:41.391Z,90.97
2023-05-05T22:49:07.896Z,91.04
2023-05-05T22:51:34.378Z,91.63
2023-05-05T22:54:00.896Z,91.85
2023-05-05T22:56:27.363Z,91.89
2023-05-05T22:58:53.809Z,91.95
2023-05-05T23:01:20.294Z,91.98
2023-05-05T23:03:46.916Z,92.24
2023-05-05T23:06:13.456Z,92.40
2023-05-05T23:08:39.785Z,92.69
2023-05-05T23:11:06.288Z,93.10
2023-05-05T23:13:32.759Z,93.23
2023-05-05T23:15:59.128Z,93.72
2023-05-05T23:18:25.606Z,93.63
2023-05-05T23:20:52.057Z,93.80
2023-05-05T23:23:18.472Z,93.94
2023-05-05T23:25:44.909Z,94.21
2023-05-05T23:28:11.585Z,94.55
2023-05-05T23:30:38.154Z,94.86
2023-05-05T23:33:04.536Z,95.29
2023-05-05T23:35:30.893Z,95.59
2023-05-05T23:37:57.333Z,95.74
2023-05-05T23:40:23.836Z,95.93
2023-05-05T23:42:50.286Z,96.19
2023-05-05T23:45:18.674Z,96.35
2023-05-05T23:47:43.082Z,96.15
2023-05-05T23:50:09.457Z,95.98
2023-05-05T23:52:35.948Z,96.01
2023-05-05T23:55:02.338Z,95.71
2023-05-05T23:57:28.748Z,95.84
2023-05-05T23:59:55.196Z,95.68
